עמוד ראשי
METAR-TAF:

METAR-TAF

שדות תעופה :

פורטו אלגרה, ריו גראנדי דו סול, ברזיל

קו רוחב: 30-00S, קו אורך: 051-11W, גובה: 3מטר

METAR: חסר

זמן: 19:36 (22:36 UTC)

תחזית

הדו"ח נערך לפני 7 שעות ו 36דקות, בשעה 15:00 UTC
תחזית בתוקף מ 14 ב 18 UTC עד 15 ב 18 UTC
רוח 7קשר מכיוון צפון/צפון-מערב
ראות 10 קילומטר או יותר
ללא עננים שבסיסם נמוך מ 5000 רגל או קומולונימבוס
יעשה מ
15 ב 07 UTC עד 15 ב 09 UTC
רוח 3קשר מכיוון דרום/דרום-מערב
יעשה מ
15 ב 11 UTC עד 15 ב 13 UTC
ראות 10 קילומטר או יותר
מעט עננים בגובה 1500רגל
עננים בינוניים בגובה 4500רגל
זמנית מ -
15 ב 13 UTC עד 15 ב 18 UTC
ראות: 3000מטר
מעט עננים בגובה 1000רגל
עננים פזורים בגובה 1500רגל
עננים בינוניים בגובה 4500רגל
גשם

TAF: SBPA 141500Z 1418/1518 34007KT CAVOK TX29/1418Z TN19/1509Z BECMG 1507/1509 21003KT BECMG 1511/1513 9999 FEW015 BKN045 TEMPO 1513/1518 3000 RA FEW010 SCT015 BKN045 RMK PES

תצפיות ותחזיות מזג אוויר לגבי יותר מ- 4,000 שדות תעופה ברחבי העולם. דוחות METAR ו- TAF.

התחנות הזמינות מסומנות בנקודות צהובות ואדומות על גבי המפה.

העבר את העכבר לנקודה הצבעונית על מנת לראות את שם התחנה.

לאחר מכן, לחץ כדי לראות את תוכן ואת תחזיות מזג האוויר.

כדי לשנות את המפה: לחץ על הכפתורים הירוקים עם הפלוס השחור כדי להתקרב; על הכפתור הירוק עם המקף כדי להתרחק; או בחיצים הירוקים למפות סמוכות.


METAR-TAF: